• Join FlightAware (Why Join?)
  • Login
  • US Flag 
08:22PM EDT


 

Airport Tracker/Info


-or-


 

Live Flight TrackerFlight Track Log ✈ SKW6492 ✈ 22-Aug-2013 ✈ KDEN - KCOD

Flight Track Log - Related Links

Times and Time Zones

All times are in EDT time to prevent confusion due to time zone crossing. See the SKW6492 flight status page for this flight to view local times or setup timezone preferences in your user account.

Time Position Orientation Groundspeed Altitude Reporting Facility
EDT Latitude Longitude Course Direction KTS MPH feet Rate Location/Type
10:44PM 39.8667 -104.7667 348° North 197 227 7,200  Level Denver TRACON
10:45PM 39.9000 -104.8667 294° West 284 327 8,600 1,620 Climbing Denver TRACON
10:46PM 40.1709 -104.7729 347° North  Level FlightAware Approximate
10:46PM 39.9667 -104.9333 323° Northwest 303 349 10,700  Level Denver TRACON
10:47PM 40.2786 -104.8052 347° North  Level FlightAware Approximate
10:47PM 40.0500 -104.9333 360° North 316 364 12,100  Level Denver TRACON
10:48PM 40.3860 -104.8398 346° North  Level FlightAware Approximate
10:48PM 40.1333 -104.9333 360° North 372 428 12,000  Level Denver TRACON
10:49PM 40.4932 -104.8755 346° North  Level FlightAware Approximate
10:49PM 40.1922 -104.9314 North 370 426 12,000  Level Denver Center
10:50PM 40.6011 -104.9074 348° North  Level FlightAware Approximate
10:50PM 40.2936 -104.9553 350° North 369 425 12,900  Level Denver Center
10:51PM 40.3931 -104.9986 342° North 349 402 16,000 2,220 Climbing Denver Center
10:52PM 40.4819 -105.0353 343° North 340 391 17,600 1,380 Climbing Denver Center
10:53PM 40.5842 -105.0681 346° North 353 406 18,900 1,320 Climbing Denver Center
10:54PM 40.6706 -105.1322 331° Northwest 345 397 20,400 1,440 Climbing Denver Center
10:55PM 40.7514 -105.2061 325° Northwest 358 412 21,900 1,440 Climbing Denver Center
10:56PM 40.8300 -105.2789 325° Northwest 351 404 23,400 1,020 Climbing Denver Center
10:57PM 40.9103 -105.3517 326° Northwest 348 400 24,100 540 Climbing Denver Center
10:58PM 40.9958 -105.4281 326° Northwest 363 418 24,600 480 Climbing Denver Center
10:59PM 41.0867 -105.5125 325° Northwest 382 440 25,100 600 Climbing Denver Center
11:00PM 41.1883 -105.6061 325° Northwest 393 452 25,900 720 Climbing Denver Center
11:01PM 41.2772 -105.6872 326° Northwest 400 460 26,600 720 Climbing Denver Center
11:02PM 41.3797 -105.7800 326° Northwest 400 460 27,500 780 Climbing Denver Center
11:03PM 41.4675 -105.8600 326° Northwest 399 459 28,300 720 Climbing Denver Center
11:04PM 41.5689 -105.9547 325° Northwest 398 458 29,000 480 Climbing Denver Center
11:05PM 41.6586 -106.0367 326° Northwest 403 464 29,300 240 Climbing Denver Center
11:06PM 41.7506 -106.1222 325° Northwest 415 478 29,600 240 Climbing Denver Center
11:07PM 41.8564 -106.2214 325° Northwest 417 480 29,900 240 Climbing Denver Center
11:08PM 41.9500 -106.3097 325° Northwest 423 487 30,200 420 Climbing Denver Center
11:09PM 42.0583 -106.4103 325° Northwest 423 487 30,800 360 Climbing Denver Center
11:10PM 42.1475 -106.4978 324° Northwest 417 480 31,000 240 Climbing Denver Center
11:11PM 42.2594 -106.6025 325° Northwest 427 491 31,400 300 Climbing Denver Center
11:12PM 42.3506 -106.6908 324° Northwest 429 494 31,700 240 Climbing Denver Center
11:13PM 42.4439 -106.7797 325° Northwest 429 494 32,000 120 Climbing Denver Center
11:14PM 42.5550 -106.8864 325° Northwest 433 498 32,000  Level Denver Center
11:15PM 42.6486 -106.9781 324° Northwest 436 502 32,000  Level Denver Center
11:16PM 42.7614 -107.0878 324° Northwest 443 510 32,000  Level Denver Center
11:18PM 42.8592 -107.1833 324° Northwest 450 518 32,000  Level Denver Center
11:18PM 42.9483 -107.2672 325° Northwest 446 513 32,000  Level Salt Lake Center
11:19PM 43.0486 -107.3664 324° Northwest 445 512 32,000  Level Salt Lake Center
11:20PM 43.1497 -107.4683 324° Northwest 451 519 32,000  Level Salt Lake Center
11:21PM 43.2497 -107.5669 324° Northwest 445 512 32,000  Level Salt Lake Center
11:22PM 43.3567 -107.6544 329° Northwest 449 517 32,000  Level Salt Lake Center
11:23PM 43.4628 -107.7442 328° Northwest 447 514 32,000  Level Salt Lake Center
11:24PM 43.5692 -107.8322 329° Northwest 446 513 32,000 -840 Level Salt Lake Center
11:25PM 43.6769 -107.9211 329° Northwest 452 520 30,300 -2,520 Descending Salt Lake Center
11:27PM 43.8128 -108.0364 329° Northwest 473 544 26,900 -3,000 Descending Salt Lake Center
11:28PM 43.9169 -108.1253 328° Northwest 443 510 24,100 -2,760 Descending Salt Lake Center
11:29PM 44.0161 -108.2097 329° Northwest 422 486 21,300 -2,640 Descending Salt Lake Center
11:30PM 44.1122 -108.2914 329° Northwest 407 468 18,800 -2,220 Descending Salt Lake Center
11:31PM 44.2044 -108.3717 328° Northwest 401 461 16,800 -1,920 Descending Salt Lake Center
11:32PM 44.2944 -108.4481 329° Northwest 390 449 14,900 -1,920 Descending Salt Lake Center
11:33PM 44.3897 -108.5292 329° Northwest 391 450 12,900 -1,860 Descending Salt Lake Center
11:34PM 44.4792 -108.6058 329° Northwest 388 447 11,200 -1,320 Descending Salt Lake Center
11:35PM 44.5511 -108.6686 328° Northwest 342 394 10,200 -1,080 Descending Salt Lake Center
11:36PM 44.6267 -108.7336 329° Northwest 293 337 9,000 -960 Descending Salt Lake Center
11:37PM 44.6392 -108.8064 284° West 241 277 8,300 -660 Descending Salt Lake Center
11:38PM 44.6114 -108.8658 237° Southwest 203 234 7,700 -660 Descending Salt Lake Center
11:39PM 44.5836 -108.9158 232° Southwest 181 208 7,000 -780 Descending Salt Lake Center
11:40PM 44.5575 -108.9600 230° Southwest 163 188 6,200 -720 Descending Salt Lake Center
11:41PM 44.5317 -109.0053 231° Southwest 154 177 5,600 -600 Descending Salt Lake Center
11:43PM 44.5167 -109.0167 200° South  Level FlightAware Approximate